Portada
METAR-TAF:

METAR-TAF

Aeroports :

Kinshasa, Congo

latitud: 04-23S, longitud: 015-26E, altitud: 309 m

Observació

L'informe es va fer fa 42 minuts, a les 11:00 UTC
Vent 8 kt del Nord/Nord-Oest
Temperatura 27°C
Humitat 58%
Pressió 1014 hPa
Visibilitat: 6000 m
Núvols disperses a una alçada de 2000 ft

METAR: FZAA 091100Z 34008KT 6000 SCT020 27/18 Q1014 NOSIG

Hora: 12:42 (11:42 UTC)

Pronòstic

L'informe es va fer fa 42 minuts, a les 11:00 UTC
Pronòstic vàlid del 09 a les 12 UTC al 10 a les 18 UTC
Vent 6 kt del Sud/Sud-Oest
Visibilitat: 7000 m
Escasses núvols a una alçada de 1800 ft
Probabilitat 30% :
Temporalment
l' 10 a les 05 UTC al 10 a les 09 UTC
Visibilitat: 4000 m
Cel ennuvolat a una alçada de 1400 ft
boirina

TAF: FZAA 091100Z 0912/1018 20006KT 7000 FEW018 PROB30 TEMPO 1005/1009 4000 BR BKN014

Observacions i pronòstics meteorològics de més de 4000 aeroports (METAR i TAF).

Les estacions disponibles són els punts grocs i vermells al mapa.

Posi el ratolí al punt desitjat per veure el nom de l'estació.

Feu clic per veure les observacions i els pronòstics meteorològics.

Per canviar el mapa: feu clic els botons verds amb una creu de color negre per apropar; al botó verd amb un guió per allunyar la imatge; o en les fletxes verdes per a mapes adjacents.


METAR-TAF: